createdAt,value
2023-04-26T16:28:37.289Z,16.90
2023-04-26T16:28:48.263Z,19.50
2023-04-26T16:29:08.531Z,14.50
2023-04-26T16:29:14.737Z,13.00
2023-04-26T16:29:32.945Z,14.60
2023-04-26T16:29:39.167Z,12.70
2023-04-26T16:29:49.112Z,9.40
2023-04-26T16:29:59.617Z,8.80
2023-04-26T16:30:09.529Z,11.70
2023-04-26T16:30:19.992Z,7.60
2023-04-26T16:30:43.507Z,11.40
2023-04-26T16:30:49.830Z,11.80
2023-04-26T16:31:04.744Z,11.60
2023-04-26T16:31:10.894Z,7.30
2023-04-26T16:31:21.846Z,7.90
2023-04-26T16:31:33.188Z,6.80
2023-04-26T16:31:54.999Z,6.10
2023-04-26T16:32:01.489Z,8.80
2023-04-26T16:32:12.827Z,8.90
2023-04-26T16:32:24.798Z,8.60
2023-04-26T16:32:31.739Z,6.40
2023-04-26T16:32:41.780Z,5.40
2023-04-26T16:32:55.261Z,27.50
2023-04-26T16:33:02.161Z,28.20
2023-04-26T16:33:13.315Z,27.60
2023-04-26T16:33:26.557Z,16.00
2023-04-26T16:33:37.480Z,19.30
2023-04-26T16:33:46.773Z,23.30
2023-04-26T16:34:13.631Z,12.40
2023-04-26T16:34:19.839Z,11.10
2023-04-26T16:34:31.377Z,11.90
2023-04-26T16:34:41.849Z,13.00
2023-04-26T16:34:53.049Z,13.30
2023-04-26T16:35:00.070Z,11.80
2023-04-26T16:35:20.896Z,6.60
2023-04-26T16:35:32.363Z,6.50
2023-04-26T16:35:43.390Z,12.50
2023-04-26T16:35:56.524Z,18.80
2023-04-26T16:36:27.635Z,18.60
2023-04-26T16:36:39.725Z,8.20
2023-04-26T16:37:02.389Z,9.60
2023-04-26T16:37:08.232Z,7.70
2023-04-26T16:37:19.825Z,6.30
2023-04-26T16:37:26.412Z,8.50
2023-04-26T16:37:36.427Z,8.80
2023-04-26T16:37:46.553Z,8.00
2023-04-26T16:38:08.383Z,8.20
2023-04-26T16:38:22.054Z,8.40
2023-04-26T16:38:28.209Z,8.60
2023-04-26T16:38:39.112Z,8.20
2023-04-26T16:38:52.350Z,10.50
2023-04-26T16:38:58.721Z,11.40
2023-04-26T16:39:14.946Z,11.60
2023-04-26T16:39:31.869Z,6.50
2023-04-26T16:39:44.955Z,5.70
2023-04-26T16:39:55.515Z,5.50
2023-04-26T16:40:04.131Z,5.30
2023-04-26T16:40:21.313Z,5.20
2023-04-26T16:40:27.339Z,5.00
2023-04-26T16:40:38.675Z,5.10
2023-04-26T16:40:47.744Z,5.10
2023-04-26T16:40:58.473Z,5.40
2023-04-26T16:41:11.377Z,6.10
2023-04-26T16:41:28.110Z,11.80
2023-04-26T16:41:41.792Z,15.30
2023-04-26T16:41:48.858Z,13.90
2023-04-26T16:41:58.548Z,43.10
2023-04-26T16:42:10.582Z,45.60
2023-04-26T16:42:19.196Z,46.90
2023-04-26T16:42:29.032Z,17.30
2023-04-26T16:42:42.731Z,27.00
2023-04-26T16:42:50.015Z,64.30
2023-04-26T16:43:03.350Z,65.30
2023-04-26T16:43:19.592Z,6.80
2023-04-26T16:43:30.072Z,9.40
2023-04-26T16:43:39.996Z,11.90
2023-04-26T16:43:51.283Z,13.80
2023-04-26T16:43:59.915Z,10.70
2023-04-26T16:44:16.007Z,29.80
2023-04-26T16:44:22.889Z,30.10
2023-04-26T16:44:33.959Z,34.10
2023-04-26T16:44:46.000Z,16.50
2023-04-26T16:45:03.781Z,17.30
2023-04-26T16:45:14.744Z,11.80
2023-04-26T16:45:32.713Z,7.30
2023-04-26T16:45:38.842Z,7.00
2023-04-26T16:45:48.925Z,8.30
2023-04-26T16:45:59.089Z,9.00
2023-04-26T16:46:09.254Z,8.10
2023-04-26T16:46:19.291Z,8.30
2023-04-26T16:46:39.771Z,10.60
2023-04-26T16:46:49.713Z,12.50
2023-04-26T16:46:59.831Z,13.00
2023-04-26T16:47:09.909Z,15.60
2023-04-26T16:47:21.010Z,15.40
2023-04-26T16:47:30.143Z,14.30
2023-04-26T16:47:40.175Z,13.50
2023-04-26T16:47:50.373Z,14.90
2023-04-26T16:48:00.653Z,13.50
2023-04-26T16:48:10.654Z,13.20
2023-04-26T16:48:31.166Z,9.70
2023-04-26T16:48:41.199Z,13.90
2023-04-26T16:48:51.590Z,13.00
2023-04-26T16:49:01.419Z,12.10
2023-04-26T16:49:11.615Z,7.50
2023-04-26T16:49:21.768Z,10.40
2023-04-26T16:49:32.028Z,11.80
2023-04-26T16:49:42.141Z,11.90
2023-04-26T16:49:52.167Z,9.20
2023-04-26T16:50:02.349Z,9.80
2023-04-26T16:50:12.524Z,9.40
2023-04-26T16:50:23.144Z,9.30
2023-04-26T16:50:32.494Z,8.50
2023-04-26T16:50:42.623Z,10.60
2023-04-26T16:50:52.846Z,10.70
2023-04-26T16:51:04.864Z,9.00
2023-04-26T16:51:13.026Z,9.70
2023-04-26T16:51:23.317Z,10.20
2023-04-26T16:51:33.390Z,9.40
2023-04-26T16:51:43.536Z,10.20
2023-04-26T16:51:54.544Z,10.20
2023-04-26T16:52:03.759Z,13.00
2023-04-26T16:52:13.930Z,11.80
2023-04-26T16:52:24.145Z,12.00
2023-04-26T16:52:34.254Z,9.40
2023-04-26T16:52:45.212Z,9.40
2023-04-26T16:53:04.563Z,8.00
2023-04-26T16:53:14.756Z,8.00
2023-04-26T16:53:24.904Z,28.90
2023-04-26T16:53:35.851Z,34.20
2023-04-26T16:53:45.130Z,38.00
2023-04-26T16:53:55.246Z,19.40
2023-04-26T16:54:05.394Z,19.30
2023-04-26T16:54:15.728Z,16.50
2023-04-26T16:54:25.589Z,16.80
2023-04-26T16:54:36.558Z,30.10
2023-04-26T16:54:45.897Z,37.70
2023-04-26T16:54:56.091Z,43.10
2023-04-26T16:55:06.067Z,27.50
2023-04-26T16:55:16.210Z,19.70
2023-04-26T16:55:26.366Z,9.70
2023-04-26T16:55:46.896Z,45.50
2023-04-26T16:55:56.778Z,51.70
2023-04-26T16:56:06.987Z,30.50
2023-04-26T16:56:16.908Z,18.60
2023-04-26T16:56:27.206Z,17.20
2023-04-26T16:56:37.289Z,25.80
2023-04-26T16:56:47.483Z,23.60
2023-04-26T16:56:57.612Z,21.30
2023-04-26T16:57:07.865Z,10.30
2023-04-26T16:57:17.731Z,11.20
2023-04-26T16:57:27.997Z,9.20
2023-04-26T16:57:38.171Z,10.10
2023-04-26T16:57:48.143Z,9.30
2023-04-26T16:57:58.253Z,8.70
2023-04-26T16:58:09.838Z,9.10
2023-04-26T16:58:18.644Z,9.20
2023-04-26T16:58:28.633Z,14.30
2023-04-26T16:58:39.010Z,16.10
2023-04-26T16:58:48.965Z,16.30
2023-04-26T16:58:59.072Z,11.00
2023-04-26T16:59:10.145Z,10.30
2023-04-26T16:59:19.281Z,11.00
2023-04-26T16:59:29.351Z,13.90
2023-04-26T16:59:39.566Z,12.90
2023-04-26T16:59:49.802Z,11.70
2023-04-26T16:59:59.845Z,10.10
2023-04-26T17:00:19.962Z,8.60
2023-04-26T17:00:30.042Z,8.60
2023-04-26T17:00:40.052Z,7.10
2023-04-26T17:00:50.302Z,6.70
2023-04-26T17:01:00.418Z,6.20
2023-04-26T17:01:10.611Z,6.50
2023-04-26T17:01:20.574Z,6.30
2023-04-26T17:01:30.912Z,6.00
2023-04-26T17:01:40.976Z,6.90
2023-04-26T17:01:51.248Z,7.70
2023-04-26T17:02:01.267Z,9.20
2023-04-26T17:02:11.417Z,8.60
2023-04-26T17:02:21.468Z,8.00
2023-04-26T17:02:31.670Z,6.50
2023-04-26T17:02:41.943Z,7.10
2023-04-26T17:02:51.940Z,9.10
2023-04-26T17:03:02.078Z,11.10
2023-04-26T17:03:12.416Z,21.00
2023-04-26T17:03:22.822Z,22.80
2023-04-26T17:03:32.719Z,22.00
2023-04-26T17:03:42.711Z,11.10
2023-04-26T17:03:52.832Z,7.20
2023-04-26T17:04:02.874Z,6.00
2023-04-26T17:04:13.596Z,9.20
2023-04-26T17:04:23.256Z,8.60
2023-04-26T17:04:51.851Z,7.40
2023-04-26T17:04:58.024Z,5.30
2023-04-26T17:05:08.416Z,9.40
2023-04-26T17:05:18.585Z,10.20
2023-04-26T17:05:28.545Z,11.20
2023-04-26T17:05:39.968Z,7.60
2023-04-26T17:05:58.710Z,10.70
2023-04-26T17:06:08.848Z,10.10
2023-04-26T17:06:18.925Z,6.00
2023-04-26T17:06:29.155Z,4.90
2023-04-26T17:06:39.180Z,5.20
2023-04-26T17:06:49.365Z,11.40
2023-04-26T17:06:59.539Z,11.80
2023-04-26T17:07:09.686Z,11.50
2023-04-26T17:07:19.605Z,4.70
2023-04-26T17:07:30.023Z,4.70
2023-04-26T17:07:40.436Z,5.30
2023-04-26T17:07:50.016Z,5.30
2023-04-26T17:08:00.344Z,5.30
2023-04-26T17:08:10.209Z,10.70
2023-04-26T17:08:20.520Z,13.00
2023-04-26T17:08:30.515Z,12.10
2023-04-26T17:08:40.721Z,8.00
2023-04-26T17:08:50.961Z,6.50
2023-04-26T17:09:00.999Z,6.30
2023-04-26T17:09:11.219Z,7.40
2023-04-26T17:09:21.341Z,7.60
2023-04-26T17:09:31.451Z,9.90
2023-04-26T17:09:41.884Z,8.10
2023-04-26T17:09:51.765Z,7.60
2023-04-26T17:10:01.943Z,5.00
2023-04-26T17:10:12.052Z,6.60
2023-04-26T17:10:21.975Z,7.50
2023-04-26T17:10:32.124Z,8.80
2023-04-26T17:10:42.370Z,8.00
2023-04-26T17:10:52.744Z,7.00
2023-04-26T17:11:02.759Z,5.60
2023-04-26T17:11:12.792Z,5.30
2023-04-26T17:11:22.909Z,5.50
2023-04-26T17:11:32.950Z,6.80
2023-04-26T17:11:43.165Z,7.00
2023-04-26T17:11:53.384Z,7.00
2023-04-26T17:12:03.430Z,6.00
2023-04-26T17:12:13.526Z,6.10
2023-04-26T17:12:23.692Z,6.20
2023-04-26T17:12:33.819Z,5.70
2023-04-26T17:12:43.943Z,5.70
2023-04-26T17:12:54.011Z,7.00
2023-04-26T17:13:04.099Z,7.90
2023-04-26T17:13:14.768Z,8.60
2023-04-26T17:13:24.613Z,6.80
2023-04-26T17:13:35.055Z,8.20
2023-04-26T17:13:45.010Z,7.50
2023-04-26T17:13:55.020Z,8.80
2023-04-26T17:14:05.726Z,7.10
2023-04-26T17:14:15.432Z,7.70
2023-04-26T17:14:26.483Z,6.30
2023-04-26T17:14:35.559Z,5.60
2023-04-26T17:14:46.067Z,4.60
2023-04-26T17:14:56.682Z,5.10
2023-04-26T17:15:07.072Z,7.20
2023-04-26T17:15:17.448Z,8.20
2023-04-26T17:15:26.560Z,7.90
2023-04-26T17:15:36.089Z,6.10
2023-04-26T17:15:47.004Z,7.10
2023-04-26T17:16:06.461Z,6.70
2023-04-26T17:16:16.613Z,5.70
2023-04-26T17:16:26.753Z,6.90
2023-04-26T17:16:36.985Z,7.20
2023-04-26T17:16:46.935Z,6.10
2023-04-26T17:16:57.196Z,5.40
2023-04-26T17:17:07.304Z,5.60
2023-04-26T17:17:17.487Z,6.30
2023-04-26T17:17:27.661Z,6.00
2023-04-26T17:17:37.940Z,5.90
2023-04-26T17:17:47.869Z,7.10
2023-04-26T17:17:58.034Z,7.90
2023-04-26T17:18:08.335Z,7.90
2023-04-26T17:18:18.368Z,5.50
2023-04-26T17:18:28.414Z,4.90
2023-04-26T17:18:38.448Z,5.50
2023-04-26T17:18:48.764Z,7.60
2023-04-26T17:18:58.903Z,8.10
2023-04-26T17:19:08.866Z,7.60
2023-04-26T17:19:19.017Z,6.00
2023-04-26T17:19:29.148Z,6.10
2023-04-26T17:19:39.418Z,7.00
2023-04-26T17:19:49.341Z,8.20
2023-04-26T17:19:59.901Z,9.00
